Terminal Aerodrome Forecast
Issued by NWS

Home | Current Version | Previous Version | Text Only | Print | Product List | Glossary On
Versions: 1 2 3 4 5 6 7 8 9 10 11 12 13 14 15 16
000
FTUS46 KMTR 191100
TAFSNS
TAF
KSNS 191120Z 1912/2012 VRB03KT P6SM OVC007
     FM191700 VRB03KT P6SM SKC
     FM192000 29011KT P6SM SKC
     FM200200 30008KT P6SM BKN009=

USA.gov is the U.S. government's official web portal to all federal, state and local government web resources and services.